Weather at Dounis Airfield

Public forecast

Using degrees Celsius for public forecast. Weather courtesy of forecast.io.

Closest aviation weather report (METAR) to Dounis Airfield

Closest report is Elefsis Airport, 12.2 nm (22.5 km) ENE. Retrieved 2021/04/17 11:50 UTC (15 minutes ago):

LGEL 171150Z 31011KT 9999 SCT025 20/10 Q1009

Closest aviation forecast (TAF) to Dounis Airfield

Closest forecast is Elefsis Airport, 12.2 nm (22.5 km) ENE. Retrieved 2021/04/17 12:15 UTC (0 seconds ago):

TAF LGEL 171100Z 1712/1812 36012KT 9999 SCT025 BECMG 1720/1722 VRB05KT BECMG 1810/1812 24012KT